Time;durP1;ratioP1;P1;durP2;ratioP2;P2;SDS_P1;SDS_P2;PMS_P1;PMS_P2;Temp;Humidity;BMP_temperature;BMP_pressure;BME280_temperature;BME280_humidity;BME280_pressure;Samples;Min_cycle;Max_cycle;Signal;HPM_P1;HPM_P2
2023/07/14 00:01:46;;;;;;;5.75;2.50;;;14.00;99.90;;;;;;4995410;28;20242;-76
2023/07/14 00:04:19;;;;;;;5.97;2.50;;;14.10;99.90;;;;;;4995220;28;20211;-75
2023/07/14 00:06:50;;;;;;;4.20;2.65;;;14.20;99.90;;;;;;4994294;28;20199;-75
2023/07/14 00:09:30;;;;;;;6.47;2.70;;;14.40;99.90;;;;;;4994004;28;20223;-75
2023/07/14 00:12:01;;;;;;;5.63;2.50;;;14.50;99.90;;;;;;4989929;28;20254;-74
2023/07/14 00:14:32;;;;;;;4.13;2.42;;;14.60;99.90;;;;;;4991335;28;20215;-75
2023/07/14 00:17:03;;;;;;;5.93;2.38;;;14.70;99.90;;;;;;4982537;28;20685;-75
2023/07/14 00:19:35;;;;;;;7.57;2.72;;;14.80;99.90;;;;;;4993966;28;20190;-75
2023/07/14 00:22:11;;;;;;;5.78;2.42;;;14.90;99.90;;;;;;4995017;28;20200;-75
2023/07/14 00:24:44;;;;;;;3.13;1.92;;;15.10;99.90;;;;;;4986561;28;20705;-74
2023/07/14 00:27:20;;;;;;;6.70;2.75;;;15.20;99.90;;;;;;4975742;28;20196;-74
2023/07/14 00:29:52;;;;;;;5.45;2.20;;;15.30;99.90;;;;;;4992680;28;20208;-75
2023/07/14 00:32:25;;;;;;;5.35;2.90;;;15.40;99.90;;;;;;4988017;28;20679;-74
2023/07/14 00:34:57;;;;;;;6.88;2.67;;;15.40;99.90;;;;;;4990639;28;20215;-75
2023/07/14 00:37:28;;;;;;;6.68;2.67;;;15.50;99.90;;;;;;4991690;28;20204;-75
2023/07/14 00:40:01;;;;;;;7.78;3.47;;;15.60;99.90;;;;;;4977276;28;20568;-75
2023/07/14 00:42:32;;;;;;;10.32;2.63;;;15.80;99.90;;;;;;4993340;28;20208;-74
2023/07/14 00:45:04;;;;;;;3.55;2.05;;;15.90;99.90;;;;;;4993129;28;20257;-75
2023/07/14 00:47:35;;;;;;;5.13;2.30;;;16.10;99.90;;;;;;4993050;28;20191;-74
2023/07/14 00:50:07;;;;;;;5.53;2.20;;;16.20;99.90;;;;;;4992929;28;20238;-74
2023/07/14 00:52:40;;;;;;;8.55;2.38;;;16.30;99.90;;;;;;4991855;28;20678;-75
2023/07/14 00:55:41;;;;;;;7.38;2.28;;;16.50;99.90;;;;;;4988912;28;20223;-75
2023/07/14 00:58:24;;;;;;;5.28;2.28;;;16.70;99.90;;;;;;4991976;28;20564;-75
2023/07/14 01:01:13;;;;;;;4.65;2.30;;;16.80;99.90;;;;;;4990934;28;20242;-75
2023/07/14 01:03:44;;;;;;;6.00;2.50;;;16.90;99.90;;;;;;4991256;28;20688;-75
2023/07/14 01:06:19;;;;;;;5.28;2.13;;;17.00;99.90;;;;;;4992807;28;20203;-75
2023/07/14 01:08:56;;;;;;;4.93;2.00;;;17.10;99.90;;;;;;4993600;28;20195;-75
2023/07/14 01:11:34;;;;;;;7.75;2.15;;;17.20;99.90;;;;;;4993072;28;20201;-75
2023/07/14 01:14:08;;;;;;;7.43;2.15;;;17.30;99.90;;;;;;4991725;28;20199;-75
2023/07/14 01:16:41;;;;;;;5.75;2.38;;;17.50;99.90;;;;;;4991803;28;20200;-75
2023/07/14 01:19:22;;;;;;;5.13;1.80;;;17.60;99.90;;;;;;4993277;28;20682;-75
2023/07/14 01:21:57;;;;;;;4.13;2.00;;;17.80;99.90;;;;;;4988277;28;20210;-75
2023/07/14 01:24:34;;;;;;;4.25;1.67;;;17.90;99.90;;;;;;4988354;28;20705;-75
2023/07/14 01:27:09;;;;;;;4.50;1.70;;;18.00;99.90;;;;;;4987893;28;20203;-75
2023/07/14 01:29:43;;;;;;;3.50;1.52;;;18.20;99.90;;;;;;4991571;28;20210;-75
2023/07/14 01:32:20;;;;;;;5.80;1.73;;;18.40;99.90;;;;;;4990159;28;20634;-75
2023/07/14 01:34:52;;;;;;;2.75;1.55;;;18.60;99.90;;;;;;4992580;28;20205;-75
2023/07/14 01:37:24;;;;;;;3.70;1.55;;;18.80;99.90;;;;;;4993155;28;20622;-74
2023/07/14 01:39:56;;;;;;;2.58;1.17;;;18.90;99.90;;;;;;4992284;28;20666;-75
2023/07/14 01:42:29;;;;;;;2.53;1.20;;;19.00;99.90;;;;;;4992819;28;20199;-75
2023/07/14 01:45:00;;;;;;;2.75;1.20;;;19.00;99.90;;;;;;4988559;28;20585;-75
2023/07/14 01:47:36;;;;;;;3.13;1.20;;;19.20;99.90;;;;;;4991761;28;20573;-75
2023/07/14 01:50:08;;;;;;;3.47;1.50;;;19.20;99.90;;;;;;4991729;28;20226;-76
2023/07/14 01:52:39;;;;;;;3.20;1.40;;;19.30;99.90;;;;;;4992440;28;20235;-75
2023/07/14 01:55:15;;;;;;;2.65;1.33;;;19.40;99.90;;;;;;4990516;28;20231;-74
2023/07/14 01:57:51;;;;;;;4.43;1.30;;;19.60;99.90;;;;;;4990708;28;20195;-75
2023/07/14 02:00:22;;;;;;;1.98;1.20;;;19.70;99.90;;;;;;4987067;28;20259;-74
2023/07/14 02:02:54;;;;;;;3.47;1.50;;;19.80;99.90;;;;;;4989425;28;20197;-75
2023/07/14 02:05:36;;;;;;;3.90;1.27;;;19.90;99.90;;;;;;4993432;28;20203;-75
2023/07/14 02:08:08;;;;;;;3.45;1.40;;;20.00;99.90;;;;;;4991670;28;20571;-75
2023/07/14 02:10:40;;;;;;;2.38;1.35;;;20.10;99.90;;;;;;4992383;28;20279;-75
2023/07/14 02:13:14;;;;;;;4.72;1.15;;;20.10;99.90;;;;;;4990178;28;20573;-76
2023/07/14 02:15:46;;;;;;;1.83;1.00;;;20.20;99.90;;;;;;4989678;28;20203;-75
2023/07/14 02:18:21;;;;;;;4.45;1.13;;;20.30;99.90;;;;;;4996323;28;20192;-75
2023/07/14 02:20:53;;;;;;;1.70;0.90;;;20.30;99.90;;;;;;4993800;28;20199;-75
2023/07/14 02:23:26;;;;;;;2.60;0.95;;;20.40;99.90;;;;;;4994323;28;20200;-75
2023/07/14 02:26:07;;;;;;;2.03;1.00;;;20.40;99.90;;;;;;4995017;28;20207;-76
2023/07/14 02:28:40;;;;;;;1.67;0.90;;;20.50;99.90;;;;;;4990058;28;20191;-76
2023/07/14 02:31:21;;;;;;;1.85;1.00;;;20.70;99.90;;;;;;4996287;28;20674;-75
2023/07/14 02:33:53;;;;;;;1.92;1.00;;;20.80;99.90;;;;;;4993266;28;20199;-75
2023/07/14 02:36:35;;;;;;;2.10;1.00;;;20.90;99.90;;;;;;4995301;28;20199;-76
2023/07/14 02:39:07;;;;;;;4.90;1.50;;;20.90;99.90;;;;;;4993630;28;20214;-75
2023/07/14 02:41:41;;;;;;;2.70;1.10;;;21.00;99.90;;;;;;4993606;28;20196;-76
2023/07/14 02:44:17;;;;;;;2.83;1.00;;;20.90;99.90;;;;;;4993267;28;20211;-76
2023/07/14 02:46:52;;;;;;;1.70;1.10;;;20.90;99.90;;;;;;4986168;28;20204;-75
2023/07/14 02:49:23;;;;;;;2.17;1.10;;;21.00;99.90;;;;;;4994703;28;20651;-74
2023/07/14 02:51:54;;;;;;;1.23;0.77;;;21.10;99.90;;;;;;4995523;28;20206;-74
2023/07/14 02:54:25;;;;;;;3.10;1.00;;;21.10;99.90;;;;;;4993893;28;20570;-75
2023/07/14 02:56:57;;;;;;;3.90;1.10;;;21.10;99.90;;;;;;4995711;28;20201;-75
2023/07/14 02:59:30;;;;;;;4.22;1.10;;;21.20;99.90;;;;;;4984022;28;20226;-76
2023/07/14 03:02:02;;;;;;;2.38;0.98;;;21.20;99.90;;;;;;4995486;28;20698;-77
2023/07/14 03:04:34;;;;;;;2.42;1.00;;;21.30;99.90;;;;;;4994332;28;20223;-75
2023/07/14 03:07:09;;;;;;;4.28;0.90;;;21.40;99.90;;;;;;4993466;28;20199;-76
2023/07/14 03:09:40;;;;;;;3.40;1.20;;;21.50;99.90;;;;;;4994209;28;20198;-75
2023/07/14 03:12:13;;;;;;;2.85;1.15;;;21.50;99.90;;;;;;4996196;28;20668;-75
2023/07/14 03:14:46;;;;;;;2.45;1.00;;;21.60;99.90;;;;;;4989805;28;20195;-76
2023/07/14 03:17:17;;;;;;;1.95;1.00;;;21.60;99.90;;;;;;4988688;28;20207;-75
2023/07/14 03:19:48;;;;;;;4.40;1.10;;;21.60;99.90;;;;;;4992326;28;20195;-75
2023/07/14 03:22:19;;;;;;;1.90;1.02;;;21.60;99.90;;;;;;4993829;28;20226;-76
2023/07/14 03:24:50;;;;;;;3.05;1.30;;;21.60;99.90;;;;;;4994512;28;20223;-75
2023/07/14 03:27:21;;;;;;;3.05;1.10;;;21.60;99.90;;;;;;4995347;28;20206;-76
2023/07/14 03:29:54;;;;;;;2.60;0.88;;;21.70;99.90;;;;;;4988827;28;20281;-75
2023/07/14 03:32:25;;;;;;;1.60;1.02;;;21.80;99.90;;;;;;4994085;28;20200;-76
2023/07/14 03:34:56;;;;;;;2.42;1.10;;;21.90;99.90;;;;;;4995747;28;20208;-76
2023/07/14 03:37:27;;;;;;;2.72;1.00;;;21.90;99.90;;;;;;4996222;28;20211;-76
2023/07/14 03:39:59;;;;;;;2.55;1.20;;;21.90;99.90;;;;;;4993030;28;20199;-76
2023/07/14 03:42:30;;;;;;;3.10;0.90;;;21.90;99.90;;;;;;4991908;28;20200;-75
2023/07/14 03:45:03;;;;;;;2.95;1.08;;;22.00;99.90;;;;;;4994245;28;20227;-75
2023/07/14 03:47:36;;;;;;;4.50;1.13;;;22.00;99.90;;;;;;4993059;28;20254;-75
2023/07/14 03:50:07;;;;;;;2.65;0.90;;;22.00;99.90;;;;;;4993386;28;20227;-74
2023/07/14 03:52:39;;;;;;;1.70;0.90;;;22.10;99.90;;;;;;4992025;28;20223;-78
2023/07/14 03:55:11;;;;;;;2.28;0.90;;;22.10;99.90;;;;;;4993376;28;20226;-75
2023/07/14 03:57:42;;;;;;;2.50;0.90;;;22.10;99.90;;;;;;4994604;28;20192;-75
2023/07/14 04:00:18;;;;;;;2.22;1.00;;;22.10;99.90;;;;;;4991880;28;20230;-75
2023/07/14 04:02:49;;;;;;;1.60;1.00;;;22.20;99.90;;;;;;4993774;28;20199;-76
2023/07/14 04:05:21;;;;;;;4.43;1.70;;;22.20;99.90;;;;;;4993871;28;20242;-75
2023/07/14 04:07:52;;;;;;;2.33;1.30;;;22.20;99.90;;;;;;4992714;28;20656;-75
2023/07/14 04:10:24;;;;;;;4.15;1.20;;;22.20;99.90;;;;;;4994055;28;20586;-75
2023/07/14 04:12:55;;;;;;;1.67;0.95;;;22.30;99.90;;;;;;4994397;28;20597;-77
2023/07/14 04:15:28;;;;;;;2.53;1.10;;;22.30;99.90;;;;;;4985900;28;20226;-78
2023/07/14 04:17:59;;;;;;;2.60;1.00;;;22.20;99.90;;;;;;4994146;28;20203;-77
2023/07/14 04:20:30;;;;;;;3.33;1.08;;;22.20;99.90;;;;;;4992851;28;20195;-76
2023/07/14 04:23:01;;;;;;;1.20;0.90;;;22.20;99.90;;;;;;4992581;28;20196;-77
2023/07/14 04:25:32;;;;;;;2.85;0.98;;;22.20;99.90;;;;;;4989742;28;21984;-76
2023/07/14 04:28:04;;;;;;;1.23;0.90;;;22.20;99.90;;;;;;4984398;28;20234;-76
2023/07/14 04:30:37;;;;;;;4.18;1.42;;;22.20;99.90;;;;;;4991219;28;20246;-76
2023/07/14 04:33:08;;;;;;;4.63;1.90;;;22.20;99.90;;;;;;4988779;28;20199;-76
2023/07/14 04:35:39;;;;;;;2.30;1.05;;;22.30;99.90;;;;;;4992053;28;20199;-76
2023/07/14 04:38:10;;;;;;;1.92;1.00;;;22.30;99.90;;;;;;4994463;28;20562;-76
2023/07/14 04:40:44;;;;;;;1.23;1.10;;;22.30;99.90;;;;;;4992472;28;20228;-75
2023/07/14 04:43:15;;;;;;;2.67;0.90;;;22.30;99.90;;;;;;4993747;28;20207;-75
2023/07/14 04:45:49;;;;;;;2.05;1.10;;;22.20;99.90;;;;;;4992063;28;20709;-75
2023/07/14 04:48:23;;;;;;;1.92;0.80;;;22.20;99.90;;;;;;4992657;28;20203;-76
2023/07/14 04:50:54;;;;;;;2.50;1.40;;;22.30;99.90;;;;;;4993611;28;20310;-75
2023/07/14 04:53:25;;;;;;;1.63;0.98;;;22.30;99.90;;;;;;4993368;28;20227;-75
2023/07/14 04:55:56;;;;;;;2.55;1.10;;;22.30;99.90;;;;;;4990372;28;20203;-76
2023/07/14 04:58:27;;;;;;;3.22;1.70;;;22.30;99.90;;;;;;4992126;28;20676;-76
2023/07/14 05:01:01;;;;;;;3.80;1.30;;;22.30;99.90;;;;;;4993535;28;20231;-75
2023/07/14 05:03:32;;;;;;;2.15;1.10;;;22.40;99.90;;;;;;4985003;28;20651;-76
2023/07/14 05:06:03;;;;;;;3.00;1.08;;;22.40;99.90;;;;;;4987741;28;20223;-75
2023/07/14 05:08:34;;;;;;;1.95;0.95;;;22.50;99.90;;;;;;4985404;28;20192;-77
2023/07/14 05:11:05;;;;;;;2.83;1.13;;;22.40;99.90;;;;;;4990801;28;20204;-77
2023/07/14 05:13:36;;;;;;;3.90;1.17;;;22.30;99.90;;;;;;4993883;28;20200;-76
2023/07/14 05:16:10;;;;;;;1.98;1.30;;;22.40;99.90;;;;;;4993234;28;20591;-76
2023/07/14 05:18:41;;;;;;;3.08;1.10;;;22.30;99.90;;;;;;4994012;28;20194;-77
2023/07/14 05:21:13;;;;;;;2.13;0.93;;;22.30;99.90;;;;;;4994025;28;20202;-76
2023/07/14 05:23:44;;;;;;;2.15;0.80;;;22.20;99.90;;;;;;4994128;28;20564;-77
2023/07/14 05:26:15;;;;;;;1.98;1.00;;;22.20;99.90;;;;;;4993769;28;20242;-77
2023/07/14 05:28:46;;;;;;;2.90;1.10;;;22.10;99.90;;;;;;4991664;28;20206;-76
2023/07/14 05:31:20;;;;;;;2.67;0.98;;;22.10;99.90;;;;;;4981523;28;20207;-76
2023/07/14 05:33:52;;;;;;;2.22;1.00;;;22.00;99.90;;;;;;4993562;28;20195;-76
2023/07/14 05:36:23;;;;;;;1.92;1.30;;;22.10;99.90;;;;;;4993432;28;20204;-76
2023/07/14 05:38:54;;;;;;;2.25;1.10;;;22.10;99.90;;;;;;4993146;28;20195;-76
2023/07/14 05:41:25;;;;;;;2.00;1.27;;;22.10;99.90;;;;;;4993661;28;20192;-76
2023/07/14 05:43:56;;;;;;;3.33;1.10;;;22.10;99.90;;;;;;4991925;28;20667;-76
2023/07/14 05:46:29;;;;;;;2.17;1.00;;;22.10;99.90;;;;;;4991948;28;20229;-75
2023/07/14 05:49:00;;;;;;;1.38;1.05;;;22.10;99.90;;;;;;4993038;28;20203;-74
2023/07/14 05:51:31;;;;;;;5.63;1.05;;;22.10;99.90;;;;;;4990927;28;20223;-76
2023/07/14 05:54:02;;;;;;;1.63;0.80;;;22.20;99.90;;;;;;4991615;28;20202;-75
2023/07/14 05:56:33;;;;;;;2.28;1.00;;;22.20;99.90;;;;;;4991437;28;20686;-76
2023/07/14 05:59:05;;;;;;;3.53;0.90;;;22.20;99.90;;;;;;4990576;28;20203;-76
2023/07/14 06:01:38;;;;;;;1.80;0.93;;;22.20;99.90;;;;;;4992580;28;20643;-75
2023/07/14 06:04:09;;;;;;;1.95;1.00;;;22.10;99.90;;;;;;4991467;28;20659;-75
2023/07/14 06:06:41;;;;;;;1.85;0.95;;;22.10;99.90;;;;;;4993036;28;20234;-76
2023/07/14 06:09:14;;;;;;;2.15;0.85;;;22.10;99.90;;;;;;4989831;28;20655;-76
2023/07/14 06:11:46;;;;;;;1.58;0.80;;;22.00;99.90;;;;;;4991160;28;20199;-75
2023/07/14 06:14:17;;;;;;;2.80;1.00;;;22.00;99.90;;;;;;4989054;28;20210;-75
2023/07/14 06:16:50;;;;;;;1.52;0.80;;;22.00;99.90;;;;;;4990299;28;20199;-75
2023/07/14 06:19:21;;;;;;;2.72;0.80;;;21.90;99.90;;;;;;4990720;28;20202;-75
2023/07/14 06:21:52;;;;;;;3.08;1.00;;;21.90;99.90;;;;;;4992931;28;20200;-75
2023/07/14 06:24:23;;;;;;;3.55;0.88;;;21.80;99.90;;;;;;4992473;28;20215;-76
2023/07/14 06:26:55;;;;;;;1.40;1.00;;;21.70;99.90;;;;;;4990885;28;20674;-76
2023/07/14 06:29:26;;;;;;;2.60;1.08;;;21.60;99.90;;;;;;4982066;28;20210;-75
2023/07/14 06:31:59;;;;;;;1.55;1.00;;;21.60;99.90;;;;;;4990590;28;20226;-75
2023/07/14 06:34:30;;;;;;;1.40;1.00;;;21.50;99.90;;;;;;4993416;28;20206;-75
2023/07/14 06:37:02;;;;;;;2.10;0.90;;;21.40;99.90;;;;;;4992458;28;20578;-75
2023/07/14 06:39:33;;;;;;;2.50;1.00;;;21.30;99.90;;;;;;4983964;28;20200;-75
2023/07/14 06:42:04;;;;;;;3.88;1.00;;;21.20;99.90;;;;;;4992287;28;20204;-75
2023/07/14 06:44:35;;;;;;;3.83;1.27;;;21.20;99.90;;;;;;4992056;28;20570;-75
2023/07/14 06:47:09;;;;;;;2.45;1.20;;;21.10;99.90;;;;;;4992605;28;20295;-76
2023/07/14 06:49:40;;;;;;;2.00;1.10;;;21.00;99.90;;;;;;4983449;28;20234;-75
2023/07/14 06:52:13;;;;;;;3.85;1.30;;;21.00;99.90;;;;;;4992946;28;20206;-75
2023/07/14 06:54:47;;;;;;;1.77;1.00;;;20.80;99.90;;;;;;4990053;28;20211;-75
2023/07/14 06:57:18;;;;;;;1.50;1.02;;;20.80;99.90;;;;;;4989683;28;20201;-75
2023/07/14 06:59:49;;;;;;;4.18;1.15;;;20.60;99.90;;;;;;4991434;28;20214;-75
2023/07/14 07:02:22;;;;;;;4.15;1.30;;;20.50;99.90;;;;;;4993201;28;20226;-75
2023/07/14 07:04:54;;;;;;;4.82;1.02;;;20.40;99.90;;;;;;4992703;28;20192;-75
2023/07/14 07:07:25;;;;;;;2.60;1.02;;;20.30;99.90;;;;;;4996085;28;20203;-75
2023/07/14 07:09:56;;;;;;;3.03;1.10;;;20.20;99.90;;;;;;4995966;28;20210;-75
2023/07/14 07:12:27;;;;;;;1.38;1.00;;;20.10;99.90;;;;;;4994098;28;20214;-75
2023/07/14 07:14:58;;;;;;;4.25;1.20;;;20.00;99.90;;;;;;4989432;28;20208;-75
2023/07/14 07:17:31;;;;;;;3.08;1.25;;;19.90;99.90;;;;;;4996214;28;20192;-75
2023/07/14 07:20:03;;;;;;;2.88;1.25;;;19.70;99.90;;;;;;4989190;28;20222;-75
2023/07/14 07:22:36;;;;;;;4.82;1.40;;;19.50;99.90;;;;;;4983402;28;20192;-75
2023/07/14 07:25:07;;;;;;;2.85;1.75;;;19.30;99.90;;;;;;4979613;28;20219;-75
2023/07/14 07:27:39;;;;;;;6.57;2.03;;;19.10;99.90;;;;;;4987895;28;20200;-75
2023/07/14 07:30:14;;;;;;;6.75;2.45;;;18.90;99.90;;;;;;4994039;28;20687;-75
2023/07/14 07:32:49;;;;;;;6.60;2.20;;;18.80;99.90;;;;;;4995809;28;20204;-75
2023/07/14 07:35:20;;;;;;;7.97;2.20;;;18.70;99.90;;;;;;4995991;28;20285;-75
2023/07/14 07:37:52;;;;;;;6.82;2.00;;;18.50;99.90;;;;;;4994237;28;20207;-75
2023/07/14 07:40:23;;;;;;;3.45;2.22;;;18.40;99.90;;;;;;4993372;28;20216;-75
2023/07/14 07:42:54;;;;;;;7.82;2.30;;;18.30;99.90;;;;;;4994602;28;20207;-75
2023/07/14 07:45:25;;;;;;;5.07;2.00;;;18.20;99.90;;;;;;4996153;28;20211;-76
2023/07/14 07:47:58;;;;;;;5.28;2.10;;;18.10;99.90;;;;;;4994766;28;20286;-75
2023/07/14 07:50:30;;;;;;;5.53;2.40;;;18.00;99.90;;;;;;4994960;28;20588;-75
2023/07/14 07:53:01;;;;;;;3.75;1.95;;;18.00;99.90;;;;;;4995346;28;20218;-76
2023/07/14 07:55:32;;;;;;;3.30;1.88;;;17.90;99.90;;;;;;4991366;28;20215;-76
2023/07/14 07:58:03;;;;;;;4.22;1.80;;;17.90;99.90;;;;;;4992312;28;20210;-75
2023/07/14 08:00:34;;;;;;;5.97;2.30;;;17.90;99.90;;;;;;4990398;28;20774;-75
2023/07/14 08:03:07;;;;;;;5.47;2.10;;;17.90;99.90;;;;;;4986773;28;20200;-75
2023/07/14 08:05:39;;;;;;;6.03;2.17;;;17.90;99.90;;;;;;4982898;28;20219;-75
2023/07/14 08:08:10;;;;;;;4.22;2.42;;;18.00;99.90;;;;;;4992533;28;20203;-76
2023/07/14 08:10:45;;;;;;;6.43;2.60;;;18.00;99.90;;;;;;4994263;28;20196;-75
2023/07/14 08:13:17;;;;;;;6.07;2.50;;;17.90;99.90;;;;;;4992103;28;20651;-75
2023/07/14 08:15:49;;;;;;;5.32;2.80;;;17.90;99.90;;;;;;4987980;28;20369;-75
2023/07/14 08:18:22;;;;;;;5.30;2.33;;;17.90;99.90;;;;;;4992562;28;20200;-76
2023/07/14 08:20:53;;;;;;;6.68;2.38;;;17.90;99.90;;;;;;4995017;28;20206;-75
2023/07/14 08:23:25;;;;;;;5.05;2.10;;;17.90;99.90;;;;;;4983428;28;20200;-75
2023/07/14 08:25:57;;;;;;;6.97;2.10;;;17.80;99.90;;;;;;4994754;28;20229;-75
2023/07/14 08:28:29;;;;;;;5.05;2.50;;;17.60;99.90;;;;;;4995213;28;20226;-75
2023/07/14 08:31:03;;;;;;;5.63;2.50;;;17.50;99.90;;;;;;4994824;28;20667;-75
2023/07/14 08:33:36;;;;;;;6.85;2.50;;;17.40;99.90;;;;;;4993997;28;20202;-75
2023/07/14 08:36:08;;;;;;;4.47;2.42;;;17.30;99.90;;;;;;4993194;28;20206;-75
2023/07/14 08:38:40;;;;;;;4.68;2.28;;;17.20;99.90;;;;;;4992731;28;20200;-75
2023/07/14 08:41:23;;;;;;;5.68;2.53;;;17.10;99.90;;;;;;4992661;28;20206;-75
2023/07/14 08:44:30;;;;;;;4.38;1.98;;;17.00;99.90;;;;;;4994605;28;20199;-75
2023/07/14 08:47:09;;;;;;;5.35;2.30;;;16.90;99.90;;;;;;4994779;28;20231;-76
2023/07/14 08:49:49;;;;;;;6.30;2.80;;;16.80;99.90;;;;;;4994599;28;20230;-75
2023/07/14 08:52:25;;;;;;;5.30;2.45;;;16.70;99.90;;;;;;4994469;28;20584;-75
2023/07/14 08:55:02;;;;;;;6.97;2.60;;;16.70;99.90;;;;;;4993477;28;20214;-74
2023/07/14 08:57:45;;;;;;;6.72;2.30;;;16.60;99.90;;;;;;4993533;28;20199;-74
2023/07/14 09:00:23;;;;;;;5.68;3.97;;;16.50;99.90;;;;;;4993110;28;20234;-74
2023/07/14 09:03:05;;;;;;;7.78;3.20;;;16.40;99.90;;;;;;4994425;28;20203;-74
2023/07/14 09:05:42;;;;;;;5.85;2.90;;;16.40;99.90;;;;;;4992947;28;20218;-74
2023/07/14 09:08:14;;;;;;;5.97;3.25;;;16.30;99.90;;;;;;4994319;28;20210;-74
2023/07/14 09:10:58;;;;;;;4.60;2.70;;;16.30;99.90;;;;;;4994350;28;20251;-74
2023/07/14 09:13:51;;;;;;;5.43;3.13;;;16.20;99.90;;;;;;4994111;28;20208;-74
2023/07/14 09:16:25;;;;;;;5.60;2.85;;;16.20;99.90;;;;;;4994074;28;20210;-74
2023/07/14 09:19:02;;;;;;;6.15;3.63;;;16.10;99.90;;;;;;4994060;28;20225;-74
2023/07/14 09:21:39;;;;;;;9.10;3.50;;;16.10;99.90;;;;;;4984406;28;20691;-74
2023/07/14 09:24:25;;;;;;;5.60;3.50;;;16.00;99.90;;;;;;4994247;28;20199;-74
2023/07/14 09:26:58;;;;;;;4.95;3.53;;;16.00;99.90;;;;;;4993820;28;20227;-74
2023/07/14 09:29:36;;;;;;;5.63;3.05;;;15.90;99.90;;;;;;4993961;28;20546;-74
2023/07/14 09:32:13;;;;;;;6.78;3.80;;;15.90;99.90;;;;;;4994013;28;20203;-74
2023/07/14 09:34:49;;;;;;;6.75;3.90;;;15.90;99.90;;;;;;4992603;28;20246;-74
2023/07/14 09:37:26;;;;;;;7.22;4.00;;;15.80;99.90;;;;;;4987828;28;20679;-74
2023/07/14 09:40:15;;;;;;;7.03;3.90;;;15.70;99.90;;;;;;4993250;28;20215;-74
2023/07/14 09:42:47;;;;;;;7.53;3.90;;;15.70;99.90;;;;;;4993138;28;20200;-74
2023/07/14 09:45:21;;;;;;;6.15;3.97;;;15.60;99.90;;;;;;4994021;28;20206;-74
2023/07/14 09:47:57;;;;;;;5.65;3.83;;;15.60;99.90;;;;;;4988498;28;20227;-74
2023/07/14 09:50:30;;;;;;;4.78;3.55;;;15.50;99.90;;;;;;4992576;28;20277;-74
2023/07/14 09:53:07;;;;;;;5.22;3.50;;;15.50;99.90;;;;;;4993872;28;20203;-74
2023/07/14 09:55:50;;;;;;;4.82;3.50;;;15.40;99.90;;;;;;4993721;28;20202;-74
2023/07/14 09:58:25;;;;;;;6.72;3.60;;;15.40;99.90;;;;;;4993682;28;20195;-74
2023/07/14 10:00:59;;;;;;;8.57;4.20;;;15.30;99.90;;;;;;4981834;28;20245;-74
2023/07/14 10:03:37;;;;;;;6.15;3.40;;;15.30;99.90;;;;;;4993371;28;20591;-74
2023/07/14 10:06:16;;;;;;;7.25;4.00;;;15.20;99.90;;;;;;4990426;28;20215;-74
2023/07/14 10:08:54;;;;;;;6.60;3.78;;;15.10;99.90;;;;;;4992264;28;20684;-74
2023/07/14 10:11:28;;;;;;;7.97;4.03;;;15.10;99.90;;;;;;4987535;28;20214;-74
2023/07/14 10:14:05;;;;;;;7.55;4.00;;;15.10;99.90;;;;;;4993571;28;20717;-74
2023/07/14 10:16:43;;;;;;;5.80;3.55;;;15.00;99.90;;;;;;4992813;28;20218;-74
2023/07/14 10:19:18;;;;;;;5.18;3.65;;;15.00;99.90;;;;;;4993422;28;20202;-74
2023/07/14 10:21:57;;;;;;;5.88;3.35;;;15.00;99.90;;;;;;4993506;28;20195;-74
2023/07/14 10:24:31;;;;;;;7.75;4.18;;;15.00;99.90;;;;;;4992538;28;20199;-74
2023/07/14 10:27:10;;;;;;;4.53;3.47;;;14.90;99.90;;;;;;4993315;28;20277;-74
2023/07/14 10:29:50;;;;;;;5.18;3.47;;;14.90;99.90;;;;;;4993770;28;20200;-74
2023/07/14 10:32:32;;;;;;;6.57;3.80;;;14.80;99.90;;;;;;4989726;28;20250;-74
2023/07/14 10:35:07;;;;;;;5.90;3.78;;;14.80;99.90;;;;;;4981888;28;20204;-74
2023/07/14 10:37:43;;;;;;;6.65;3.63;;;14.80;99.90;;;;;;4993720;28;20207;-74
2023/07/14 10:40:19;;;;;;;5.60;3.80;;;14.80;99.90;;;;;;4997486;28;20195;-74
2023/07/14 10:43:02;;;;;;;4.32;3.13;;;14.70;99.90;;;;;;4996857;28;20211;-74
2023/07/14 10:45:35;;;;;;;5.07;3.28;;;14.70;99.90;;;;;;4990834;28;20710;-74
2023/07/14 10:48:10;;;;;;;7.60;3.30;;;14.70;99.90;;;;;;4996816;28;20695;-74
2023/07/14 10:50:45;;;;;;;5.32;3.30;;;14.60;99.90;;;;;;4995752;28;20303;-74
2023/07/14 10:53:19;;;;;;;6.55;3.60;;;14.60;99.90;;;;;;4996170;28;20282;-74
2023/07/14 10:55:57;;;;;;;6.28;3.45;;;14.50;99.90;;;;;;4996628;28;20203;-74
2023/07/14 10:58:37;;;;;;;5.97;3.58;;;14.50;99.90;;;;;;4997062;28;20206;-74
2023/07/14 11:01:16;;;;;;;7.03;3.28;;;14.40;99.90;;;;;;4996322;28;20239;-74
2023/07/14 11:03:51;;;;;;;5.68;3.65;;;14.30;99.90;;;;;;4996673;28;20546;-74
2023/07/14 11:06:25;;;;;;;6.75;4.13;;;14.20;99.90;;;;;;4995328;28;20211;-74
2023/07/14 11:08:58;;;;;;;7.00;4.47;;;14.20;99.90;;;;;;4983740;28;20206;-74
2023/07/14 11:11:39;;;;;;;7.70;4.40;;;14.20;99.90;;;;;;4995298;28;20287;-74
2023/07/14 11:14:23;;;;;;;6.07;4.25;;;14.20;99.90;;;;;;4996333;28;20199;-74
2023/07/14 11:17:00;;;;;;;6.82;4.80;;;14.20;99.90;;;;;;4996214;28;20195;-74
2023/07/14 11:19:45;;;;;;;9.45;5.88;;;14.20;99.90;;;;;;4995176;28;20203;-74
2023/07/14 11:22:24;;;;;;;10.35;6.22;;;14.20;99.90;;;;;;4996672;28;20234;-74
2023/07/14 11:25:06;;;;;;;9.82;6.05;;;14.10;99.90;;;;;;4996147;28;20195;-74
2023/07/14 11:27:44;;;;;;;8.27;5.70;;;14.00;99.90;;;;;;4995909;28;20269;-74
2023/07/14 11:30:18;;;;;;;8.57;5.70;;;14.00;99.90;;;;;;4995905;28;20706;-74
2023/07/14 11:32:56;;;;;;;8.48;5.57;;;14.00;99.90;;;;;;4994243;28;20207;-74
2023/07/14 11:35:35;;;;;;;8.55;5.50;;;14.00;99.90;;;;;;4990905;28;20200;-74
2023/07/14 11:38:32;;;;;;;7.35;4.65;;;14.00;99.90;;;;;;4995902;28;20682;-74
2023/07/14 11:41:04;;;;;;;7.72;4.85;;;13.90;99.90;;;;;;4989481;28;20208;-74
2023/07/14 11:43:38;;;;;;;8.90;5.32;;;13.90;99.90;;;;;;4995763;28;20659;-74
2023/07/14 11:46:13;;;;;;;6.95;4.78;;;13.90;99.90;;;;;;4995723;28;20664;-74
2023/07/14 11:48:45;;;;;;;8.90;5.10;;;13.90;99.90;;;;;;4991603;28;20258;-74
2023/07/14 11:51:19;;;;;;;10.13;5.05;;;13.90;99.90;;;;;;4992016;28;20221;-75
2023/07/14 11:54:07;;;;;;;6.07;4.43;;;13.90;99.90;;;;;;4992287;28;20196;-75
2023/07/14 11:56:44;;;;;;;7.57;4.82;;;13.80;99.90;;;;;;4989465;28;20204;-74
2023/07/14 11:59:24;;;;;;;6.22;4.13;;;13.80;99.90;;;;;;4986518;28;20207;-74
2023/07/14 12:01:57;;;;;;;5.63;4.07;;;13.80;99.90;;;;;;4989731;28;20275;-75
2023/07/14 12:04:32;;;;;;;8.77;4.10;;;13.80;99.90;;;;;;4991668;28;20210;-75
2023/07/14 12:07:24;;;;;;;7.25;4.10;;;13.80;99.90;;;;;;4983167;28;20716;-75
2023/07/14 12:10:10;;;;;;;5.68;3.90;;;13.70;99.90;;;;;;4990834;28;20703;-75
2023/07/14 12:12:43;;;;;;;8.20;4.38;;;13.70;99.90;;;;;;4992005;28;20204;-75
2023/07/14 12:15:47;;;;;;;5.72;3.63;;;13.70;99.90;;;;;;4988744;28;20203;-75
2023/07/14 12:18:32;;;;;;;5.65;3.90;;;13.70;99.90;;;;;;4994838;28;20206;-75
2023/07/14 12:21:24;;;;;;;6.68;3.63;;;13.70;99.90;;;;;;4991400;28;20258;-75
2023/07/14 12:23:57;;;;;;;5.40;3.95;;;13.70;99.90;;;;;;4995182;28;20211;-75
2023/07/14 12:26:37;;;;;;;7.07;4.03;;;13.70;99.90;;;;;;4991951;28;20196;-75
2023/07/14 12:29:16;;;;;;;5.70;3.80;;;13.60;99.90;;;;;;4993787;28;20651;-74
2023/07/14 12:31:53;;;;;;;4.93;3.45;;;13.60;99.90;;;;;;4984335;28;20283;-75
2023/07/14 12:34:25;;;;;;;5.32;3.70;;;13.60;99.90;;;;;;4991951;28;20634;-75
2023/07/14 12:36:56;;;;;;;6.53;3.58;;;13.60;99.90;;;;;;4989253;28;20207;-75
2023/07/14 12:39:28;;;;;;;6.80;3.60;;;13.60;99.90;;;;;;4993751;28;20194;-75
2023/07/14 12:41:59;;;;;;;6.10;3.35;;;13.60;99.90;;;;;;4992560;28;20227;-74
2023/07/14 12:44:35;;;;;;;6.88;3.90;;;13.70;99.90;;;;;;4995024;28;20188;-74
2023/07/14 12:47:15;;;;;;;6.43;3.63;;;13.50;99.90;;;;;;4989660;28;20262;-75
2023/07/14 12:49:48;;;;;;;6.78;3.55;;;13.50;99.90;;;;;;4993981;28;20227;-75
2023/07/14 12:52:27;;;;;;;5.10;3.13;;;13.50;99.90;;;;;;4990088;28;20253;-74
2023/07/14 12:55:03;;;;;;;5.03;3.60;;;13.50;99.90;;;;;;4994780;28;20195;-75
2023/07/14 12:57:39;;;;;;;5.68;3.17;;;13.50;99.90;;;;;;4994391;28;20188;-75
2023/07/14 13:00:22;;;;;;;5.40;3.20;;;13.40;99.90;;;;;;4993013;28;20655;-74
2023/07/14 13:02:56;;;;;;;4.20;2.95;;;13.40;99.90;;;;;;4994667;28;20191;-74
2023/07/14 13:05:33;;;;;;;4.65;2.83;;;13.30;99.90;;;;;;4993801;28;20314;-76
2023/07/14 13:08:06;;;;;;;5.70;2.85;;;13.30;99.90;;;;;;4994270;28;20310;-75
2023/07/14 13:10:42;;;;;;;4.35;2.78;;;13.30;99.90;;;;;;4994385;28;20279;-75
2023/07/14 13:13:23;;;;;;;7.20;3.30;;;13.30;99.90;;;;;;4993464;28;20191;-75
2023/07/14 13:15:56;;;;;;;5.20;3.10;;;13.20;99.90;;;;;;4994415;28;20541;-75
2023/07/14 13:18:32;;;;;;;4.10;3.00;;;13.20;99.90;;;;;;4994380;28;20205;-75
2023/07/14 13:21:06;;;;;;;4.55;2.92;;;13.20;99.90;;;;;;4994338;28;20191;-75
2023/07/14 13:23:37;;;;;;;5.28;3.30;;;13.20;99.90;;;;;;4994459;28;20192;-75